sensor_id;sensor_type;location;lat;lon;timestamp;pressure;altitude;pressure_sealevel;temperature;humidity
79690;BME280;69156;55.932;-3.238;2023-09-12T00:01:07;100784.06;;;13.71;61.25
79690;BME280;69156;55.932;-3.238;2023-09-12T00:03:33;100784.66;;;13.72;61.33
79690;BME280;69156;55.932;-3.238;2023-09-12T00:06:00;100779.98;;;13.58;61.52
79690;BME280;69156;55.932;-3.238;2023-09-12T00:08:23;100781.83;;;13.55;61.93
79690;BME280;69156;55.932;-3.238;2023-09-12T00:10:59;100785.18;;;13.57;62.14
79690;BME280;69156;55.932;-3.238;2023-09-12T00:13:14;100782.25;;;13.57;62.16
79690;BME280;69156;55.932;-3.238;2023-09-12T00:15:39;100781.72;;;13.46;62.20
79690;BME280;69156;55.932;-3.238;2023-09-12T00:18:05;100782.14;;;13.48;62.19
79690;BME280;69156;55.932;-3.238;2023-09-12T00:20:30;100779.06;;;13.62;62.14
79690;BME280;69156;55.932;-3.238;2023-09-12T00:22:55;100780.12;;;13.44;62.14
79690;BME280;69156;55.932;-3.238;2023-09-12T00:25:21;100777.81;;;13.71;61.75
79690;BME280;69156;55.932;-3.238;2023-09-12T00:27:47;100775.07;;;13.64;61.29
79690;BME280;69156;55.932;-3.238;2023-09-12T00:30:14;100777.24;;;13.63;61.25
79690;BME280;69156;55.932;-3.238;2023-09-12T00:32:37;100779.04;;;13.80;61.17
79690;BME280;69156;55.932;-3.238;2023-09-12T00:35:04;100780.48;;;13.58;61.28
79690;BME280;69156;55.932;-3.238;2023-09-12T00:37:30;100782.40;;;13.69;61.02
79690;BME280;69156;55.932;-3.238;2023-09-12T00:39:56;100787.86;;;13.68;61.21
79690;BME280;69156;55.932;-3.238;2023-09-12T00:42:25;100787.58;;;13.69;60.99
79690;BME280;69156;55.932;-3.238;2023-09-12T00:44:48;100786.33;;;13.69;60.79
79690;BME280;69156;55.932;-3.238;2023-09-12T00:47:14;100783.91;;;13.53;60.93
79690;BME280;69156;55.932;-3.238;2023-09-12T00:49:39;100789.48;;;13.56;61.05
79690;BME280;69156;55.932;-3.238;2023-09-12T00:52:06;100795.30;;;13.49;61.15
79690;BME280;69156;55.932;-3.238;2023-09-12T00:54:31;100801.30;;;13.66;60.97
79690;BME280;69156;55.932;-3.238;2023-09-12T00:56:57;100804.97;;;13.65;60.97
79690;BME280;69156;55.932;-3.238;2023-09-12T00:59:23;100804.69;;;13.61;61.16
79690;BME280;69156;55.932;-3.238;2023-09-12T01:01:49;100804.93;;;13.49;61.42
79690;BME280;69156;55.932;-3.238;2023-09-12T01:04:14;100802.76;;;13.51;61.23
79690;BME280;69156;55.932;-3.238;2023-09-12T01:06:40;100804.98;;;13.51;61.29
79690;BME280;69156;55.932;-3.238;2023-09-12T01:09:06;100802.48;;;13.42;61.45
79690;BME280;69156;55.932;-3.238;2023-09-12T01:11:31;100804.18;;;13.45;61.49
79690;BME280;69156;55.932;-3.238;2023-09-12T01:13:57;100809.11;;;13.49;61.33
79690;BME280;69156;55.932;-3.238;2023-09-12T01:16:22;100814.08;;;13.51;61.51
79690;BME280;69156;55.932;-3.238;2023-09-12T01:18:49;100819.53;;;13.45;61.49
79690;BME280;69156;55.932;-3.238;2023-09-12T01:21:39;100819.33;;;13.50;61.44
79690;BME280;69156;55.932;-3.238;2023-09-12T01:23:49;100818.68;;;13.40;61.66
79690;BME280;69156;55.932;-3.238;2023-09-12T01:26:24;100819.78;;;13.46;61.52
79690;BME280;69156;55.932;-3.238;2023-09-12T01:28:34;100819.28;;;13.48;61.66
79690;BME280;69156;55.932;-3.238;2023-09-12T01:30:58;100820.36;;;13.47;61.82
79690;BME280;69156;55.932;-3.238;2023-09-12T01:33:22;100820.59;;;13.37;61.84
79690;BME280;69156;55.932;-3.238;2023-09-12T01:35:47;100824.27;;;13.42;61.87
79690;BME280;69156;55.932;-3.238;2023-09-12T01:38:13;100824.90;;;13.45;61.71
79690;BME280;69156;55.932;-3.238;2023-09-12T01:40:42;100828.73;;;13.19;61.97
79690;BME280;69156;55.932;-3.238;2023-09-12T01:43:04;100828.79;;;13.17;62.23
79690;BME280;69156;55.932;-3.238;2023-09-12T01:45:29;100830.79;;;13.25;62.13
79690;BME280;69156;55.932;-3.238;2023-09-12T01:47:54;100833.33;;;13.18;62.06
79690;BME280;69156;55.932;-3.238;2023-09-12T01:50:20;100832.19;;;13.16;62.29
79690;BME280;69156;55.932;-3.238;2023-09-12T01:52:45;100830.81;;;13.23;62.17
79690;BME280;69156;55.932;-3.238;2023-09-12T01:55:11;100826.12;;;13.19;62.05
79690;BME280;69156;55.932;-3.238;2023-09-12T01:57:36;100832.32;;;13.23;61.99
79690;BME280;69156;55.932;-3.238;2023-09-12T02:00:01;100829.80;;;13.14;62.21
79690;BME280;69156;55.932;-3.238;2023-09-12T02:02:26;100827.33;;;13.18;62.28
79690;BME280;69156;55.932;-3.238;2023-09-12T02:04:58;100827.98;;;13.22;62.14
79690;BME280;69156;55.932;-3.238;2023-09-12T02:07:17;100832.10;;;13.11;62.27
79690;BME280;69156;55.932;-3.238;2023-09-12T02:09:42;100842.30;;;13.12;62.31
79690;BME280;69156;55.932;-3.238;2023-09-12T02:12:08;100847.99;;;13.16;62.39
79690;BME280;69156;55.932;-3.238;2023-09-12T02:14:34;100850.68;;;13.21;62.29
79690;BME280;69156;55.932;-3.238;2023-09-12T02:16:59;100851.67;;;13.21;62.35
79690;BME280;69156;55.932;-3.238;2023-09-12T02:19:26;100850.27;;;13.21;62.05
79690;BME280;69156;55.932;-3.238;2023-09-12T02:21:51;100854.77;;;13.22;62.15
79690;BME280;69156;55.932;-3.238;2023-09-12T02:24:16;100856.05;;;13.19;61.92
79690;BME280;69156;55.932;-3.238;2023-09-12T02:26:42;100855.99;;;13.25;61.82
79690;BME280;69156;55.932;-3.238;2023-09-12T02:29:07;100857.91;;;13.05;61.69
79690;BME280;69156;55.932;-3.238;2023-09-12T02:31:33;100856.97;;;13.31;61.58
79690;BME280;69156;55.932;-3.238;2023-09-12T02:33:58;100854.28;;;13.21;61.49
79690;BME280;69156;55.932;-3.238;2023-09-12T02:36:24;100850.73;;;13.03;61.79
79690;BME280;69156;55.932;-3.238;2023-09-12T02:38:49;100851.93;;;13.01;62.08
79690;BME280;69156;55.932;-3.238;2023-09-12T02:41:14;100860.78;;;13.08;61.89
79690;BME280;69156;55.932;-3.238;2023-09-12T02:43:40;100858.13;;;12.97;62.15
79690;BME280;69156;55.932;-3.238;2023-09-12T02:46:06;100859.67;;;12.90;62.15
79690;BME280;69156;55.932;-3.238;2023-09-12T02:48:32;100861.56;;;12.96;61.92
79690;BME280;69156;55.932;-3.238;2023-09-12T02:50:57;100865.61;;;13.04;61.92
79690;BME280;69156;55.932;-3.238;2023-09-12T02:53:22;100867.28;;;12.97;62.03
79690;BME280;69156;55.932;-3.238;2023-09-12T02:55:48;100865.83;;;12.96;62.08
79690;BME280;69156;55.932;-3.238;2023-09-12T02:58:13;100866.36;;;12.96;62.35
79690;BME280;69156;55.932;-3.238;2023-09-12T03:00:40;100875.33;;;12.91;62.21
79690;BME280;69156;55.932;-3.238;2023-09-12T03:03:06;100877.04;;;12.88;62.34
79690;BME280;69156;55.932;-3.238;2023-09-12T03:05:31;100879.28;;;12.83;62.42
79690;BME280;69156;55.932;-3.238;2023-09-12T03:07:57;100879.52;;;12.81;62.76
79690;BME280;69156;55.932;-3.238;2023-09-12T03:10:23;100881.20;;;12.82;62.79
79690;BME280;69156;55.932;-3.238;2023-09-12T03:12:49;100883.32;;;12.95;62.70
79690;BME280;69156;55.932;-3.238;2023-09-12T03:15:14;100884.08;;;12.89;62.80
79690;BME280;69156;55.932;-3.238;2023-09-12T03:17:40;100884.24;;;12.89;62.90
79690;BME280;69156;55.932;-3.238;2023-09-12T03:20:07;100879.57;;;12.66;63.04
79690;BME280;69156;55.932;-3.238;2023-09-12T03:22:32;100878.17;;;12.55;63.36
79690;BME280;69156;55.932;-3.238;2023-09-12T03:24:58;100881.95;;;12.65;63.35
79690;BME280;69156;55.932;-3.238;2023-09-12T03:27:24;100885.08;;;12.66;63.01
79690;BME280;69156;55.932;-3.238;2023-09-12T03:29:49;100886.87;;;12.76;62.99
79690;BME280;69156;55.932;-3.238;2023-09-12T03:32:14;100886.97;;;12.68;63.08
79690;BME280;69156;55.932;-3.238;2023-09-12T03:34:40;100888.77;;;12.77;62.93
79690;BME280;69156;55.932;-3.238;2023-09-12T03:37:06;100886.49;;;12.62;63.17
79690;BME280;69156;55.932;-3.238;2023-09-12T03:39:33;100887.99;;;12.49;63.49
79690;BME280;69156;55.932;-3.238;2023-09-12T03:41:58;100886.01;;;12.57;63.51
79690;BME280;69156;55.932;-3.238;2023-09-12T03:44:23;100887.62;;;12.44;63.70
79690;BME280;69156;55.932;-3.238;2023-09-12T03:46:48;100887.21;;;12.52;63.66
79690;BME280;69156;55.932;-3.238;2023-09-12T03:49:14;100890.36;;;12.58;63.59
79690;BME280;69156;55.932;-3.238;2023-09-12T03:51:40;100890.50;;;12.63;63.32
79690;BME280;69156;55.932;-3.238;2023-09-12T03:54:06;100889.82;;;12.53;63.29
79690;BME280;69156;55.932;-3.238;2023-09-12T03:56:32;100895.37;;;12.51;63.40
79690;BME280;69156;55.932;-3.238;2023-09-12T03:58:57;100894.92;;;12.56;63.55
79690;BME280;69156;55.932;-3.238;2023-09-12T04:01:24;100897.19;;;12.49;63.61
79690;BME280;69156;55.932;-3.238;2023-09-12T04:03:49;100894.26;;;12.50;63.50
79690;BME280;69156;55.932;-3.238;2023-09-12T04:06:14;100896.04;;;12.54;63.41
79690;BME280;69156;55.932;-3.238;2023-09-12T04:08:40;100895.55;;;12.28;63.86
79690;BME280;69156;55.932;-3.238;2023-09-12T04:11:05;100897.60;;;12.32;64.19
79690;BME280;69156;55.932;-3.238;2023-09-12T04:13:31;100900.04;;;12.35;64.27
79690;BME280;69156;55.932;-3.238;2023-09-12T04:15:57;100900.22;;;12.16;64.39
79690;BME280;69156;55.932;-3.238;2023-09-12T04:18:22;100902.21;;;12.26;64.63
79690;BME280;69156;55.932;-3.238;2023-09-12T04:20:47;100900.31;;;12.21;64.59
79690;BME280;69156;55.932;-3.238;2023-09-12T04:23:13;100903.68;;;12.49;64.15
79690;BME280;69156;55.932;-3.238;2023-09-12T04:25:41;100903.36;;;12.24;64.19
79690;BME280;69156;55.932;-3.238;2023-09-12T04:28:04;100905.46;;;12.28;64.40
79690;BME280;69156;55.932;-3.238;2023-09-12T04:30:29;100907.92;;;12.26;64.27
79690;BME280;69156;55.932;-3.238;2023-09-12T04:32:54;100909.71;;;12.22;64.25
79690;BME280;69156;55.932;-3.238;2023-09-12T04:35:19;100910.08;;;12.36;64.33
79690;BME280;69156;55.932;-3.238;2023-09-12T04:37:45;100910.80;;;12.18;64.38
79690;BME280;69156;55.932;-3.238;2023-09-12T04:40:11;100914.76;;;12.21;64.27
79690;BME280;69156;55.932;-3.238;2023-09-12T04:42:36;100917.32;;;12.18;64.34
79690;BME280;69156;55.932;-3.238;2023-09-12T04:45:01;100922.77;;;12.20;64.30
79690;BME280;69156;55.932;-3.238;2023-09-12T04:47:27;100921.48;;;12.26;64.39
79690;BME280;69156;55.932;-3.238;2023-09-12T04:49:53;100923.40;;;12.24;64.35
79690;BME280;69156;55.932;-3.238;2023-09-12T04:52:19;100921.98;;;12.26;64.33
79690;BME280;69156;55.932;-3.238;2023-09-12T04:54:44;100925.68;;;12.17;64.33
79690;BME280;69156;55.932;-3.238;2023-09-12T04:57:09;100929.59;;;12.26;64.19
79690;BME280;69156;55.932;-3.238;2023-09-12T04:59:34;100933.24;;;12.25;64.07
79690;BME280;69156;55.932;-3.238;2023-09-12T05:02:00;100939.07;;;12.32;64.13
79690;BME280;69156;55.932;-3.238;2023-09-12T05:04:25;100939.20;;;12.18;64.30
79690;BME280;69156;55.932;-3.238;2023-09-12T05:06:50;100942.57;;;12.49;63.78
79690;BME280;69156;55.932;-3.238;2023-09-12T05:09:15;100944.63;;;12.31;63.86
79690;BME280;69156;55.932;-3.238;2023-09-12T05:11:40;100951.86;;;12.15;64.19
79690;BME280;69156;55.932;-3.238;2023-09-12T05:14:05;100958.41;;;12.22;64.17
79690;BME280;69156;55.932;-3.238;2023-09-12T05:16:31;100962.03;;;12.43;63.72
79690;BME280;69156;55.932;-3.238;2023-09-12T05:18:57;100960.86;;;12.48;63.49
79690;BME280;69156;55.932;-3.238;2023-09-12T05:21:22;100960.54;;;12.40;63.85
79690;BME280;69156;55.932;-3.238;2023-09-12T05:23:47;100962.74;;;12.26;64.29
79690;BME280;69156;55.932;-3.238;2023-09-12T05:26:13;100963.35;;;12.16;64.37
79690;BME280;69156;55.932;-3.238;2023-09-12T05:28:38;100967.87;;;12.21;64.38
79690;BME280;69156;55.932;-3.238;2023-09-12T05:31:03;100970.29;;;12.19;64.49
79690;BME280;69156;55.932;-3.238;2023-09-12T05:33:29;100972.53;;;12.01;64.93
79690;BME280;69156;55.932;-3.238;2023-09-12T05:35:55;100970.55;;;12.07;64.99
79690;BME280;69156;55.932;-3.238;2023-09-12T05:38:20;100970.85;;;12.18;64.61
79690;BME280;69156;55.932;-3.238;2023-09-12T05:40:46;100972.53;;;12.08;65.05
79690;BME280;69156;55.932;-3.238;2023-09-12T05:43:11;100972.31;;;12.00;65.22
79690;BME280;69156;55.932;-3.238;2023-09-12T05:45:36;100974.29;;;11.99;65.38
79690;BME280;69156;55.932;-3.238;2023-09-12T05:48:02;100977.38;;;12.46;64.62
79690;BME280;69156;55.932;-3.238;2023-09-12T05:50:28;100977.52;;;12.12;64.54
79690;BME280;69156;55.932;-3.238;2023-09-12T05:52:53;100977.78;;;12.09;64.81
79690;BME280;69156;55.932;-3.238;2023-09-12T05:55:18;100980.86;;;11.89;64.99
79690;BME280;69156;55.932;-3.238;2023-09-12T05:57:44;100984.81;;;12.23;64.52
79690;BME280;69156;55.932;-3.238;2023-09-12T06:00:10;100989.16;;;12.05;64.54
79690;BME280;69156;55.932;-3.238;2023-09-12T06:02:34;100991.81;;;11.99;64.79
79690;BME280;69156;55.932;-3.238;2023-09-12T06:05:00;100994.11;;;12.13;65.12
79690;BME280;69156;55.932;-3.238;2023-09-12T06:07:26;100996.07;;;12.13;65.17
79690;BME280;69156;55.932;-3.238;2023-09-12T06:09:51;100998.87;;;12.06;65.13
79690;BME280;69156;55.932;-3.238;2023-09-12T06:12:16;101001.13;;;12.09;65.33
79690;BME280;69156;55.932;-3.238;2023-09-12T06:14:42;101005.95;;;12.33;65.62
79690;BME280;69156;55.932;-3.238;2023-09-12T06:17:07;101004.04;;;12.28;65.12
79690;BME280;69156;55.932;-3.238;2023-09-12T06:19:32;101006.50;;;12.20;64.82
79690;BME280;69156;55.932;-3.238;2023-09-12T06:21:57;101005.05;;;12.29;64.55
79690;BME280;69156;55.932;-3.238;2023-09-12T06:24:23;101010.83;;;12.11;65.20
79690;BME280;69156;55.932;-3.238;2023-09-12T06:26:48;101013.94;;;12.40;64.53
79690;BME280;69156;55.932;-3.238;2023-09-12T06:29:14;101018.64;;;12.50;64.29
79690;BME280;69156;55.932;-3.238;2023-09-12T06:31:40;101024.19;;;12.26;64.45
79690;BME280;69156;55.932;-3.238;2023-09-12T06:34:05;101026.36;;;12.33;64.75
79690;BME280;69156;55.932;-3.238;2023-09-12T06:36:30;101028.93;;;12.23;64.80
79690;BME280;69156;55.932;-3.238;2023-09-12T06:38:55;101030.56;;;12.20;64.87
79690;BME280;69156;55.932;-3.238;2023-09-12T06:41:21;101031.20;;;12.38;64.68
79690;BME280;69156;55.932;-3.238;2023-09-12T06:43:47;101035.52;;;12.51;64.42
79690;BME280;69156;55.932;-3.238;2023-09-12T06:46:12;101040.67;;;12.62;63.93
79690;BME280;69156;55.932;-3.238;2023-09-12T06:48:38;101045.44;;;12.57;64.05
79690;BME280;69156;55.932;-3.238;2023-09-12T06:51:05;101047.59;;;12.62;63.90
79690;BME280;69156;55.932;-3.238;2023-09-12T06:53:29;101048.85;;;12.70;63.82
79690;BME280;69156;55.932;-3.238;2023-09-12T06:55:54;101045.33;;;12.62;63.87
79690;BME280;69156;55.932;-3.238;2023-09-12T06:58:19;101045.74;;;12.72;63.73
79690;BME280;69156;55.932;-3.238;2023-09-12T07:00:45;101053.34;;;12.80;63.44
79690;BME280;69156;55.932;-3.238;2023-09-12T07:03:10;101055.52;;;12.84;63.24
79690;BME280;69156;55.932;-3.238;2023-09-12T07:05:36;101057.39;;;12.83;63.10
79690;BME280;69156;55.932;-3.238;2023-09-12T07:08:01;101057.98;;;12.67;63.28
79690;BME280;69156;55.932;-3.238;2023-09-12T07:10:26;101062.01;;;12.73;63.47
79690;BME280;69156;55.932;-3.238;2023-09-12T07:12:52;101063.51;;;12.82;63.48
79690;BME280;69156;55.932;-3.238;2023-09-12T07:15:16;101065.26;;;12.78;63.47
79690;BME280;69156;55.932;-3.238;2023-09-12T07:17:42;101064.64;;;12.93;63.27
79690;BME280;69156;55.932;-3.238;2023-09-12T07:20:08;101067.45;;;13.23;62.54
79690;BME280;69156;55.932;-3.238;2023-09-12T07:22:33;101066.96;;;13.29;62.14
79690;BME280;69156;55.932;-3.238;2023-09-12T07:25:00;101063.08;;;12.96;62.62
79690;BME280;69156;55.932;-3.238;2023-09-12T07:27:24;101064.63;;;13.07;62.49
79690;BME280;69156;55.932;-3.238;2023-09-12T07:29:49;101066.68;;;13.18;62.61
79690;BME280;69156;55.932;-3.238;2023-09-12T07:32:15;101071.68;;;13.38;61.97
79690;BME280;69156;55.932;-3.238;2023-09-12T07:34:40;101073.69;;;13.50;61.74
79690;BME280;69156;55.932;-3.238;2023-09-12T07:37:06;101077.22;;;13.50;61.51
79690;BME280;69156;55.932;-3.238;2023-09-12T07:39:31;101078.01;;;13.32;61.38
79690;BME280;69156;55.932;-3.238;2023-09-12T07:41:57;101078.17;;;13.40;61.47
79690;BME280;69156;55.932;-3.238;2023-09-12T07:44:23;101077.60;;;13.59;60.93
79690;BME280;69156;55.932;-3.238;2023-09-12T07:46:48;101077.21;;;13.48;60.33
79690;BME280;69156;55.932;-3.238;2023-09-12T07:49:14;101078.61;;;13.64;60.08
79690;BME280;69156;55.932;-3.238;2023-09-12T07:51:41;101085.79;;;13.64;60.01
79690;BME280;69156;55.932;-3.238;2023-09-12T07:54:06;101088.69;;;13.60;59.92
79690;BME280;69156;55.932;-3.238;2023-09-12T07:56:32;101093.46;;;13.70;59.37
79690;BME280;69156;55.932;-3.238;2023-09-12T07:58:57;101092.11;;;13.89;58.70
79690;BME280;69156;55.932;-3.238;2023-09-12T08:01:23;101093.43;;;13.71;58.58
79690;BME280;69156;55.932;-3.238;2023-09-12T08:03:49;101095.96;;;14.00;58.21
79690;BME280;69156;55.932;-3.238;2023-09-12T08:06:14;101096.76;;;13.97;58.51
79690;BME280;69156;55.932;-3.238;2023-09-12T08:08:40;101096.35;;;14.22;58.05
79690;BME280;69156;55.932;-3.238;2023-09-12T08:11:06;101097.93;;;14.22;57.79
79690;BME280;69156;55.932;-3.238;2023-09-12T08:13:32;101095.49;;;14.28;57.44
79690;BME280;69156;55.932;-3.238;2023-09-12T08:15:58;101099.92;;;14.57;56.74
79690;BME280;69156;55.932;-3.238;2023-09-12T08:18:27;101105.17;;;14.57;55.99
79690;BME280;69156;55.932;-3.238;2023-09-12T08:20:50;101102.33;;;14.55;55.11
79690;BME280;69156;55.932;-3.238;2023-09-12T08:23:16;101106.93;;;14.59;55.55
79690;BME280;69156;55.932;-3.238;2023-09-12T08:25:41;101105.34;;;14.74;54.31
79690;BME280;69156;55.932;-3.238;2023-09-12T08:28:07;101108.49;;;14.68;53.38
79690;BME280;69156;55.932;-3.238;2023-09-12T08:30:37;101110.04;;;14.87;53.33
79690;BME280;69156;55.932;-3.238;2023-09-12T08:33:03;101115.61;;;14.87;53.00
79690;BME280;69156;55.932;-3.238;2023-09-12T08:35:29;101120.12;;;14.93;52.89
79690;BME280;69156;55.932;-3.238;2023-09-12T08:37:54;101117.85;;;14.89;52.55
79690;BME280;69156;55.932;-3.238;2023-09-12T08:40:21;101123.94;;;14.82;52.14
79690;BME280;69156;55.932;-3.238;2023-09-12T08:42:48;101120.84;;;15.00;52.69
79690;BME280;69156;55.932;-3.238;2023-09-12T08:45:14;101119.62;;;15.05;52.13
79690;BME280;69156;55.932;-3.238;2023-09-12T08:47:40;101121.11;;;15.19;51.68
79690;BME280;69156;55.932;-3.238;2023-09-12T08:50:05;101122.28;;;15.35;51.62
79690;BME280;69156;55.932;-3.238;2023-09-12T08:52:30;101127.52;;;15.34;51.78
79690;BME280;69156;55.932;-3.238;2023-09-12T08:54:55;101128.40;;;15.47;51.26
79690;BME280;69156;55.932;-3.238;2023-09-12T08:57:21;101125.67;;;15.16;51.70
79690;BME280;69156;55.932;-3.238;2023-09-12T08:59:46;101126.60;;;15.30;52.14
79690;BME280;69156;55.932;-3.238;2023-09-12T09:02:12;101130.43;;;15.35;51.64
79690;BME280;69156;55.932;-3.238;2023-09-12T09:04:39;101132.01;;;15.71;51.28
79690;BME280;69156;55.932;-3.238;2023-09-12T09:07:04;101135.79;;;15.65;50.86
79690;BME280;69156;55.932;-3.238;2023-09-12T09:09:29;101139.55;;;15.82;48.44
79690;BME280;69156;55.932;-3.238;2023-09-12T09:11:54;101143.29;;;15.56;46.68
79690;BME280;69156;55.932;-3.238;2023-09-12T09:14:19;101148.63;;;15.33;46.56
79690;BME280;69156;55.932;-3.238;2023-09-12T09:16:44;101147.31;;;15.54;46.91
79690;BME280;69156;55.932;-3.238;2023-09-12T09:19:10;101151.16;;;15.57;46.80
79690;BME280;69156;55.932;-3.238;2023-09-12T09:21:37;101156.96;;;15.40;46.90
79690;BME280;69156;55.932;-3.238;2023-09-12T09:24:03;101155.98;;;15.45;47.34
79690;BME280;69156;55.932;-3.238;2023-09-12T09:26:41;101155.01;;;15.39;47.06
79690;BME280;69156;55.932;-3.238;2023-09-12T09:29:09;101154.72;;;15.61;47.56
79690;BME280;69156;55.932;-3.238;2023-09-12T09:31:18;101153.90;;;15.66;47.13
79690;BME280;69156;55.932;-3.238;2023-09-12T09:33:43;101154.53;;;15.52;47.46
79690;BME280;69156;55.932;-3.238;2023-09-12T09:36:09;101156.70;;;15.58;47.17
79690;BME280;69156;55.932;-3.238;2023-09-12T09:38:35;101155.98;;;15.41;46.54
79690;BME280;69156;55.932;-3.238;2023-09-12T09:41:00;101156.24;;;15.23;46.92
79690;BME280;69156;55.932;-3.238;2023-09-12T09:43:25;101153.43;;;15.37;46.40
79690;BME280;69156;55.932;-3.238;2023-09-12T09:45:51;101155.83;;;15.34;46.14
79690;BME280;69156;55.932;-3.238;2023-09-12T09:48:18;101155.66;;;15.53;46.17
79690;BME280;69156;55.932;-3.238;2023-09-12T09:50:42;101156.77;;;15.62;46.46
79690;BME280;69156;55.932;-3.238;2023-09-12T09:53:07;101160.99;;;15.62;46.33
79690;BME280;69156;55.932;-3.238;2023-09-12T09:55:33;101164.61;;;15.72;45.44
79690;BME280;69156;55.932;-3.238;2023-09-12T09:57:59;101162.84;;;15.60;46.48
79690;BME280;69156;55.932;-3.238;2023-09-12T10:00:25;101164.37;;;15.81;46.84
79690;BME280;69156;55.932;-3.238;2023-09-12T10:02:50;101167.64;;;15.56;46.07
79690;BME280;69156;55.932;-3.238;2023-09-12T10:05:16;101163.01;;;15.64;46.88
79690;BME280;69156;55.932;-3.238;2023-09-12T10:07:42;101164.82;;;15.30;47.13
79690;BME280;69156;55.932;-3.238;2023-09-12T10:10:07;101165.49;;;15.70;47.18
79690;BME280;69156;55.932;-3.238;2023-09-12T10:12:36;101168.17;;;15.75;46.41
79690;BME280;69156;55.932;-3.238;2023-09-12T10:14:59;101173.24;;;15.50;46.27
79690;BME280;69156;55.932;-3.238;2023-09-12T10:17:26;101174.28;;;15.45;45.23
79690;BME280;69156;55.932;-3.238;2023-09-12T10:19:54;101172.36;;;15.57;45.82
79690;BME280;69156;55.932;-3.238;2023-09-12T10:22:20;101171.44;;;15.44;45.30
79690;BME280;69156;55.932;-3.238;2023-09-12T10:24:41;101174.24;;;15.50;44.97
79690;BME280;69156;55.932;-3.238;2023-09-12T10:27:06;101175.14;;;15.61;44.38
79690;BME280;69156;55.932;-3.238;2023-09-12T10:29:31;101176.15;;;15.33;45.27
79690;BME280;69156;55.932;-3.238;2023-09-12T10:31:56;101177.92;;;15.57;45.78
79690;BME280;69156;55.932;-3.238;2023-09-12T10:34:25;101175.55;;;15.80;45.65
79690;BME280;69156;55.932;-3.238;2023-09-12T10:36:48;101175.44;;;15.99;45.66
79690;BME280;69156;55.932;-3.238;2023-09-12T10:39:13;101180.16;;;15.89;45.95
79690;BME280;69156;55.932;-3.238;2023-09-12T10:41:38;101180.85;;;16.00;42.64
79690;BME280;69156;55.932;-3.238;2023-09-12T10:44:09;101181.74;;;15.86;42.51
79690;BME280;69156;55.932;-3.238;2023-09-12T10:46:30;101173.46;;;15.79;43.15
79690;BME280;69156;55.932;-3.238;2023-09-12T10:48:55;101177.48;;;15.89;43.08
79690;BME280;69156;55.932;-3.238;2023-09-12T10:51:20;101178.42;;;16.00;42.81
79690;BME280;69156;55.932;-3.238;2023-09-12T10:53:46;101184.44;;;15.95;42.98
79690;BME280;69156;55.932;-3.238;2023-09-12T10:56:17;101181.89;;;15.65;44.30
79690;BME280;69156;55.932;-3.238;2023-09-12T10:59:09;101184.39;;;15.94;43.80
79690;BME280;69156;55.932;-3.238;2023-09-12T11:01:36;101185.36;;;15.84;43.42
79690;BME280;69156;55.932;-3.238;2023-09-12T11:03:36;101188.30;;;15.68;43.56
79690;BME280;69156;55.932;-3.238;2023-09-12T11:05:55;101188.51;;;15.48;44.23
79690;BME280;69156;55.932;-3.238;2023-09-12T11:08:19;101190.40;;;15.90;43.35
79690;BME280;69156;55.932;-3.238;2023-09-12T11:10:44;101195.51;;;16.08;41.78
79690;BME280;69156;55.932;-3.238;2023-09-12T11:13:17;101195.49;;;15.99;41.30
79690;BME280;69156;55.932;-3.238;2023-09-12T11:15:35;101196.80;;;16.12;41.33
79690;BME280;69156;55.932;-3.238;2023-09-12T11:18:02;101197.94;;;15.98;41.59
79690;BME280;69156;55.932;-3.238;2023-09-12T11:20:26;101201.89;;;16.47;40.99
79690;BME280;69156;55.932;-3.238;2023-09-12T11:22:51;101196.81;;;16.24;41.48
79690;BME280;69156;55.932;-3.238;2023-09-12T11:25:19;101195.89;;;16.38;40.76
79690;BME280;69156;55.932;-3.238;2023-09-12T11:27:45;101197.83;;;16.55;40.51
79690;BME280;69156;55.932;-3.238;2023-09-12T11:30:08;101200.70;;;16.63;39.24
79690;BME280;69156;55.932;-3.238;2023-09-12T11:32:36;101199.28;;;16.55;38.62
79690;BME280;69156;55.932;-3.238;2023-09-12T11:35:05;101196.43;;;16.73;38.54
79690;BME280;69156;55.932;-3.238;2023-09-12T11:37:26;101198.47;;;16.68;38.32
79690;BME280;69156;55.932;-3.238;2023-09-12T11:39:50;101202.97;;;16.90;38.16
79690;BME280;69156;55.932;-3.238;2023-09-12T11:42:16;101199.27;;;16.92;38.90
79690;BME280;69156;55.932;-3.238;2023-09-12T11:44:41;101205.79;;;16.87;39.12
79690;BME280;69156;55.932;-3.238;2023-09-12T11:47:09;101205.60;;;16.85;38.77
79690;BME280;69156;55.932;-3.238;2023-09-12T11:49:35;101206.48;;;16.67;38.22
79690;BME280;69156;55.932;-3.238;2023-09-12T11:51:59;101207.64;;;16.72;39.30
79690;BME280;69156;55.932;-3.238;2023-09-12T11:54:25;101209.56;;;16.79;39.51
79690;BME280;69156;55.932;-3.238;2023-09-12T11:56:50;101211.58;;;16.79;38.14
79690;BME280;69156;55.932;-3.238;2023-09-12T11:59:15;101213.58;;;16.84;38.69
79690;BME280;69156;55.932;-3.238;2023-09-12T12:01:40;101213.38;;;16.87;38.46
79690;BME280;69156;55.932;-3.238;2023-09-12T12:04:06;101212.59;;;16.96;38.67
79690;BME280;69156;55.932;-3.238;2023-09-12T12:06:32;101217.21;;;16.80;37.58
79690;BME280;69156;55.932;-3.238;2023-09-12T12:09:16;101216.81;;;16.79;37.53
79690;BME280;69156;55.932;-3.238;2023-09-12T12:11:27;101215.05;;;16.95;37.55
79690;BME280;69156;55.932;-3.238;2023-09-12T12:13:48;101216.26;;;16.98;38.41
79690;BME280;69156;55.932;-3.238;2023-09-12T12:16:15;101213.27;;;17.14;37.72
79690;BME280;69156;55.932;-3.238;2023-09-12T12:18:40;101216.70;;;17.08;37.77
79690;BME280;69156;55.932;-3.238;2023-09-12T12:21:06;101217.12;;;17.05;37.04
79690;BME280;69156;55.932;-3.238;2023-09-12T12:23:32;101212.35;;;17.13;35.39
79690;BME280;69156;55.932;-3.238;2023-09-12T12:25:57;101210.75;;;17.18;37.27
79690;BME280;69156;55.932;-3.238;2023-09-12T12:28:23;101215.86;;;17.34;36.52
79690;BME280;69156;55.932;-3.238;2023-09-12T12:30:54;101219.50;;;17.60;38.18